OCN30B EDDK-EGKK
Flight info
| Callsign | OCN30B |
|---|---|
| Flight time | 1h 0m |
| Altitude | 32000 |
| Route | EDDK/31R NVO2R NVO Y868 SOGRI L608 DENUT L610 TEBRA TEBRA2G EGKK/08R |
| Aircraft | A320/M-VGDW/C |
Departure
| Time | 2026-05-06 20:19 |
|---|---|
| Airport | Cologne Bonn Airport (EDDK) |
Arrival
| Time | 2026-05-06 21:20 |
|---|---|
| Airport | London Gatwick Airport (EGKK) |
| Time | Latitude | Longitude | Altitude | Speed | Heading |
|---|---|---|---|---|---|
| 2026-05-06 19:19 | 50.88292 | 7.12100 | 231 ft | 0 kts | 36° |
| 2026-05-06 19:58 | 50.88277 | 7.12081 | 205 ft | 4 kts | 43° |
| 2026-05-06 19:58 | 50.88259 | 7.12050 | 238 ft | 4 kts | 56° |
| 2026-05-06 19:59 | 50.88246 | 7.12013 | 232 ft | 4 kts | 75° |
| 2026-05-06 19:59 | 50.88244 | 7.11972 | 230 ft | 4 kts | 101° |
| 2026-05-06 19:59 | 50.88251 | 7.11940 | 234 ft | 0 kts | 123° |
| 2026-05-06 20:04 | 50.88243 | 7.11957 | 232 ft | 7 kts | 126° |
| 2026-05-06 20:04 | 50.88224 | 7.11998 | 231 ft | 11 kts | 126° |
| 2026-05-06 20:04 | 50.88146 | 7.12173 | 230 ft | 25 kts | 125° |
| 2026-05-06 20:05 | 50.88104 | 7.12289 | 230 ft | 10 kts | 102° |
| 2026-05-06 20:05 | 50.88065 | 7.12397 | 230 ft | 12 kts | 132° |
| 2026-05-06 20:05 | 50.87996 | 7.12502 | 230 ft | 15 kts | 137° |
| 2026-05-06 20:05 | 50.87911 | 7.12605 | 230 ft | 15 kts | 164° |
| 2026-05-06 20:06 | 50.87820 | 7.12633 | 230 ft | 12 kts | 152° |
| 2026-05-06 20:06 | 50.87744 | 7.12735 | 230 ft | 16 kts | 136° |
| 2026-05-06 20:06 | 50.87658 | 7.12863 | 230 ft | 18 kts | 136° |
| 2026-05-06 20:06 | 50.87561 | 7.12998 | 230 ft | 19 kts | 138° |
| 2026-05-06 20:07 | 50.87492 | 7.13099 | 232 ft | 11 kts | 137° |
| 2026-05-06 20:07 | 50.87438 | 7.13178 | 232 ft | 10 kts | 137° |
| 2026-05-06 20:07 | 50.87375 | 7.13270 | 233 ft | 15 kts | 136° |
| 2026-05-06 20:07 | 50.87291 | 7.13391 | 238 ft | 20 kts | 137° |
| 2026-05-06 20:08 | 50.87179 | 7.13555 | 238 ft | 23 kts | 138° |
| 2026-05-06 20:08 | 50.87078 | 7.13701 | 241 ft | 11 kts | 137° |
| 2026-05-06 20:08 | 50.87026 | 7.13776 | 243 ft | 8 kts | 137° |
| 2026-05-06 20:08 | 50.86966 | 7.13863 | 243 ft | 13 kts | 137° |
| 2026-05-06 20:09 | 50.86902 | 7.13955 | 243 ft | 12 kts | 137° |
| 2026-05-06 20:09 | 50.86835 | 7.14052 | 247 ft | 14 kts | 138° |
| 2026-05-06 20:09 | 50.86748 | 7.14134 | 252 ft | 14 kts | 163° |
| 2026-05-06 20:09 | 50.86684 | 7.14209 | 256 ft | 9 kts | 137° |
| 2026-05-06 20:10 | 50.86618 | 7.14304 | 258 ft | 22 kts | 137° |
| 2026-05-06 20:10 | 50.86479 | 7.14508 | 259 ft | 28 kts | 138° |
| 2026-05-06 20:10 | 50.86390 | 7.14635 | 264 ft | 18 kts | 137° |
| 2026-05-06 20:10 | 50.86275 | 7.14802 | 269 ft | 24 kts | 137° |
| 2026-05-06 20:11 | 50.86149 | 7.14985 | 272 ft | 25 kts | 138° |
| 2026-05-06 20:11 | 50.86067 | 7.15106 | 276 ft | 12 kts | 131° |
| 2026-05-06 20:11 | 50.86050 | 7.15250 | 278 ft | 17 kts | 74° |
| 2026-05-06 20:11 | 50.86109 | 7.15347 | 276 ft | 1 kts | 25° |
| 2026-05-06 20:12 | 50.86140 | 7.15356 | 276 ft | 8 kts | 2° |
| 2026-05-06 20:12 | 50.86214 | 7.15336 | 275 ft | 8 kts | 349° |
| 2026-05-06 20:12 | 50.86219 | 7.15335 | 275 ft | 0 kts | 349° |
| 2026-05-06 20:17 | 50.86263 | 7.15321 | 274 ft | 13 kts | 347° |
| 2026-05-06 20:17 | 50.86352 | 7.15348 | 272 ft | 11 kts | 48° |
| 2026-05-06 20:18 | 50.86385 | 7.15313 | 269 ft | 7 kts | 304° |
| 2026-05-06 20:18 | 50.86434 | 7.15243 | 268 ft | 13 kts | 321° |
| 2026-05-06 20:18 | 50.86588 | 7.15024 | 263 ft | 58 kts | 317° |
| 2026-05-06 20:18 | 50.87077 | 7.14317 | 258 ft | 127 kts | 318° |
| 2026-05-06 20:19 | 50.87848 | 7.13195 | 456 ft | 162 kts | 317° |
| 2026-05-06 20:19 | 50.88672 | 7.11996 | 1290 ft | 161 kts | 318° |
| 2026-05-06 20:19 | 50.89531 | 7.10752 | 1927 ft | 178 kts | 319° |
| 2026-05-06 20:19 | 50.90484 | 7.09297 | 2303 ft | 200 kts | 307° |
| 2026-05-06 20:20 | 50.91042 | 7.07247 | 3002 ft | 208 kts | 284° |
| 2026-05-06 20:20 | 50.91062 | 7.04963 | 3659 ft | 216 kts | 262° |
| 2026-05-06 20:20 | 50.90601 | 7.02663 | 4289 ft | 225 kts | 254° |
| 2026-05-06 20:20 | 50.90065 | 7.00171 | 4681 ft | 252 kts | 254° |
| 2026-05-06 20:21 | 50.89492 | 6.97439 | 5364 ft | 269 kts | 254° |
| 2026-05-06 20:21 | 50.88890 | 6.94599 | 6316 ft | 274 kts | 254° |
| 2026-05-06 20:21 | 50.88273 | 6.91715 | 7257 ft | 279 kts | 254° |
| 2026-05-06 20:21 | 50.87646 | 6.88781 | 8184 ft | 284 kts | 254° |
| 2026-05-06 20:22 | 50.87008 | 6.85792 | 9115 ft | 289 kts | 254° |
| 2026-05-06 20:22 | 50.86359 | 6.82746 | 10037 ft | 294 kts | 254° |
| 2026-05-06 20:22 | 50.85918 | 6.80665 | 10365 ft | 309 kts | 253° |
| 2026-05-06 20:22 | 50.85208 | 6.77322 | 10762 ft | 330 kts | 253° |
| 2026-05-06 20:23 | 50.84462 | 6.73841 | 11505 ft | 337 kts | 253° |
| 2026-05-06 20:23 | 50.83698 | 6.70297 | 12378 ft | 341 kts | 253° |
| 2026-05-06 20:23 | 50.82695 | 6.65551 | 13533 ft | 345 kts | 256° |
| 2026-05-06 20:23 | 50.82420 | 6.63026 | 14045 ft | 345 kts | 268° |
| 2026-05-06 20:24 | 50.82646 | 6.59265 | 14779 ft | 345 kts | 284° |
| 2026-05-06 20:24 | 50.83191 | 6.55558 | 15542 ft | 347 kts | 284° |
| 2026-05-06 20:24 | 50.83755 | 6.51831 | 16322 ft | 349 kts | 284° |
| 2026-05-06 20:24 | 50.84324 | 6.48134 | 17054 ft | 353 kts | 284° |
| 2026-05-06 20:25 | 50.84911 | 6.44338 | 17781 ft | 356 kts | 284° |
| 2026-05-06 20:25 | 50.85500 | 6.40506 | 18441 ft | 360 kts | 283° |
| 2026-05-06 20:25 | 50.86090 | 6.36637 | 19061 ft | 364 kts | 283° |
| 2026-05-06 20:25 | 50.86684 | 6.32710 | 19658 ft | 368 kts | 283° |
| 2026-05-06 20:26 | 50.87280 | 6.28745 | 20245 ft | 372 kts | 283° |
| 2026-05-06 20:26 | 50.87878 | 6.24743 | 20860 ft | 375 kts | 283° |
| 2026-05-06 20:26 | 50.88483 | 6.20697 | 21412 ft | 379 kts | 282° |
| 2026-05-06 20:26 | 50.89094 | 6.16620 | 22007 ft | 382 kts | 282° |
| 2026-05-06 20:27 | 50.89710 | 6.12500 | 22535 ft | 387 kts | 282° |
| 2026-05-06 20:27 | 50.90331 | 6.08333 | 23074 ft | 391 kts | 282° |
| 2026-05-06 20:27 | 50.90957 | 6.04123 | 23620 ft | 394 kts | 282° |
| 2026-05-06 20:27 | 50.91586 | 5.99881 | 24051 ft | 397 kts | 282° |
| 2026-05-06 20:28 | 50.92219 | 5.95595 | 24521 ft | 400 kts | 282° |
| 2026-05-06 20:28 | 50.92850 | 5.91289 | 24999 ft | 402 kts | 282° |
| 2026-05-06 20:28 | 50.93481 | 5.86959 | 25458 ft | 405 kts | 282° |
| 2026-05-06 20:28 | 50.94109 | 5.82663 | 25909 ft | 407 kts | 282° |
| 2026-05-06 20:29 | 50.94753 | 5.78278 | 26354 ft | 409 kts | 282° |
| 2026-05-06 20:29 | 50.95409 | 5.73815 | 26798 ft | 412 kts | 282° |
| 2026-05-06 20:29 | 50.96049 | 5.69430 | 27230 ft | 414 kts | 282° |
| 2026-05-06 20:29 | 50.96696 | 5.64953 | 27678 ft | 416 kts | 282° |
| 2026-05-06 20:30 | 50.97340 | 5.60473 | 28136 ft | 418 kts | 282° |
| 2026-05-06 20:30 | 50.98630 | 5.51430 | 28991 ft | 422 kts | 281° |
| 2026-05-06 20:30 | 50.99280 | 5.46869 | 29412 ft | 425 kts | 281° |
| 2026-05-06 20:31 | 50.99933 | 5.42287 | 29809 ft | 427 kts | 281° |
| 2026-05-06 20:31 | 51.00593 | 5.37662 | 30156 ft | 430 kts | 281° |
| 2026-05-06 20:31 | 51.01254 | 5.33024 | 30471 ft | 432 kts | 281° |
| 2026-05-06 20:31 | 51.01915 | 5.28358 | 30786 ft | 434 kts | 281° |
| 2026-05-06 20:32 | 51.02577 | 5.23665 | 31086 ft | 436 kts | 281° |
| 2026-05-06 20:32 | 51.03240 | 5.18945 | 31398 ft | 439 kts | 282° |
| 2026-05-06 20:32 | 51.03904 | 5.14199 | 31687 ft | 441 kts | 282° |
| 2026-05-06 20:32 | 51.04566 | 5.09440 | 31917 ft | 440 kts | 282° |
| 2026-05-06 20:33 | 51.05214 | 5.04760 | 31955 ft | 426 kts | 282° |
| 2026-05-06 20:33 | 51.05841 | 5.00234 | 31944 ft | 414 kts | 282° |
| 2026-05-06 20:33 | 51.06446 | 4.95845 | 31944 ft | 410 kts | 282° |
| 2026-05-06 20:34 | 51.07662 | 4.87001 | 31959 ft | 409 kts | 281° |
| 2026-05-06 20:34 | 51.08872 | 4.78166 | 31948 ft | 408 kts | 281° |
| 2026-05-06 20:35 | 51.10077 | 4.69339 | 31966 ft | 408 kts | 282° |
| 2026-05-06 20:35 | 51.11274 | 4.60514 | 31981 ft | 408 kts | 282° |
| 2026-05-06 20:36 | 51.12460 | 4.51678 | 31966 ft | 408 kts | 281° |
| 2026-05-06 20:36 | 51.13635 | 4.42852 | 31966 ft | 407 kts | 281° |
| 2026-05-06 20:37 | 51.14796 | 4.34079 | 31962 ft | 407 kts | 281° |
| 2026-05-06 20:37 | 51.15958 | 4.25252 | 31961 ft | 407 kts | 281° |
| 2026-05-06 20:38 | 51.17111 | 4.16418 | 31956 ft | 407 kts | 281° |
| 2026-05-06 20:38 | 51.18264 | 4.07586 | 31954 ft | 407 kts | 281° |
| 2026-05-06 20:39 | 51.19408 | 3.98785 | 31947 ft | 407 kts | 281° |
| 2026-05-06 20:39 | 51.20546 | 3.89939 | 31945 ft | 407 kts | 281° |
| 2026-05-06 20:40 | 51.21674 | 3.81096 | 31946 ft | 407 kts | 281° |
| 2026-05-06 20:40 | 51.22794 | 3.72237 | 31952 ft | 407 kts | 281° |
| 2026-05-06 20:41 | 51.23919 | 3.63395 | 31950 ft | 406 kts | 281° |
| 2026-05-06 20:41 | 51.25087 | 3.54577 | 31955 ft | 406 kts | 282° |
| 2026-05-06 20:42 | 51.26270 | 3.45765 | 31951 ft | 406 kts | 282° |
| 2026-05-06 20:42 | 51.27434 | 3.36954 | 31961 ft | 406 kts | 282° |
| 2026-05-06 20:43 | 51.28575 | 3.28133 | 31970 ft | 406 kts | 281° |
| 2026-05-06 20:43 | 51.29704 | 3.19303 | 31995 ft | 405 kts | 281° |
| 2026-05-06 20:44 | 51.30813 | 3.10542 | 31999 ft | 404 kts | 281° |
| 2026-05-06 20:44 | 51.31920 | 3.01767 | 32020 ft | 403 kts | 281° |
| 2026-05-06 20:45 | 51.33021 | 2.92990 | 31983 ft | 402 kts | 281° |
| 2026-05-06 20:45 | 51.34113 | 2.84231 | 31534 ft | 400 kts | 281° |
| 2026-05-06 20:45 | 51.34652 | 2.79877 | 30978 ft | 397 kts | 281° |
| 2026-05-06 20:46 | 51.35188 | 2.75557 | 30448 ft | 393 kts | 281° |
| 2026-05-06 20:46 | 51.35716 | 2.71288 | 29936 ft | 390 kts | 280° |
| 2026-05-06 20:46 | 51.36239 | 2.67049 | 29374 ft | 386 kts | 280° |
| 2026-05-06 20:46 | 51.36758 | 2.62849 | 28784 ft | 383 kts | 280° |
| 2026-05-06 20:47 | 51.37271 | 2.58689 | 28215 ft | 380 kts | 280° |
| 2026-05-06 20:47 | 51.37780 | 2.54552 | 27624 ft | 378 kts | 280° |
| 2026-05-06 20:47 | 51.38275 | 2.50496 | 27106 ft | 374 kts | 280° |
| 2026-05-06 20:47 | 51.38767 | 2.46428 | 26585 ft | 371 kts | 280° |
| 2026-05-06 20:48 | 51.39253 | 2.42392 | 26083 ft | 367 kts | 280° |
| 2026-05-06 20:48 | 51.39733 | 2.38402 | 25583 ft | 364 kts | 280° |
| 2026-05-06 20:48 | 51.40210 | 2.34428 | 25044 ft | 362 kts | 280° |
| 2026-05-06 20:48 | 51.40685 | 2.30473 | 24535 ft | 360 kts | 280° |
| 2026-05-06 20:49 | 51.41157 | 2.26546 | 24045 ft | 358 kts | 280° |
| 2026-05-06 20:49 | 51.41629 | 2.22640 | 23566 ft | 356 kts | 280° |
| 2026-05-06 20:49 | 51.42102 | 2.18762 | 23022 ft | 354 kts | 280° |
| 2026-05-06 20:49 | 51.42573 | 2.14910 | 22521 ft | 350 kts | 280° |
| 2026-05-06 20:50 | 51.43040 | 2.11095 | 22019 ft | 348 kts | 280° |
| 2026-05-06 20:50 | 51.43500 | 2.07315 | 21575 ft | 344 kts | 280° |
| 2026-05-06 20:50 | 51.43957 | 2.03562 | 21119 ft | 341 kts | 280° |
| 2026-05-06 20:50 | 51.44409 | 1.99833 | 20638 ft | 340 kts | 280° |
| 2026-05-06 20:51 | 51.44852 | 1.96131 | 20198 ft | 337 kts | 280° |
| 2026-05-06 20:51 | 51.45287 | 1.92444 | 19745 ft | 335 kts | 280° |
| 2026-05-06 20:51 | 51.45717 | 1.88782 | 19305 ft | 334 kts | 280° |
| 2026-05-06 20:51 | 51.46139 | 1.85186 | 18885 ft | 332 kts | 280° |
| 2026-05-06 20:52 | 51.46561 | 1.81553 | 18467 ft | 329 kts | 280° |
| 2026-05-06 20:52 | 51.46976 | 1.77949 | 18017 ft | 328 kts | 280° |
| 2026-05-06 20:52 | 51.47385 | 1.74365 | 17560 ft | 325 kts | 280° |
| 2026-05-06 20:52 | 51.47791 | 1.70815 | 17127 ft | 323 kts | 280° |
| 2026-05-06 20:53 | 51.48198 | 1.67271 | 16703 ft | 321 kts | 281° |
| 2026-05-06 20:53 | 51.48537 | 1.63748 | 16275 ft | 320 kts | 274° |
| 2026-05-06 20:53 | 51.48447 | 1.60199 | 15878 ft | 318 kts | 262° |
| 2026-05-06 20:53 | 51.47888 | 1.56781 | 15467 ft | 318 kts | 251° |
| 2026-05-06 20:54 | 51.47116 | 1.53465 | 15077 ft | 316 kts | 251° |
| 2026-05-06 20:54 | 51.46354 | 1.50172 | 14699 ft | 314 kts | 251° |
| 2026-05-06 20:54 | 51.45597 | 1.46884 | 14322 ft | 313 kts | 251° |
| 2026-05-06 20:54 | 51.44845 | 1.43616 | 13948 ft | 312 kts | 251° |
| 2026-05-06 20:55 | 51.44072 | 1.40417 | 13504 ft | 312 kts | 245° |
| 2026-05-06 20:55 | 51.42928 | 1.37474 | 13086 ft | 313 kts | 232° |
| 2026-05-06 20:55 | 51.41382 | 1.35028 | 12681 ft | 313 kts | 219° |
| 2026-05-06 20:55 | 51.39634 | 1.32961 | 12268 ft | 311 kts | 218° |
| 2026-05-06 20:56 | 51.37894 | 1.30909 | 11869 ft | 310 kts | 218° |
| 2026-05-06 20:56 | 51.36163 | 1.28862 | 11474 ft | 308 kts | 218° |
| 2026-05-06 20:56 | 51.34446 | 1.26835 | 11084 ft | 306 kts | 218° |
| 2026-05-06 20:56 | 51.32734 | 1.24814 | 10694 ft | 305 kts | 218° |
| 2026-05-06 20:57 | 51.31033 | 1.22807 | 10296 ft | 303 kts | 218° |
| 2026-05-06 20:57 | 51.29342 | 1.20803 | 9938 ft | 300 kts | 219° |
| 2026-05-06 20:57 | 51.27949 | 1.18444 | 9776 ft | 287 kts | 238° |
| 2026-05-06 20:57 | 51.26942 | 1.15720 | 9425 ft | 283 kts | 242° |
| 2026-05-06 20:58 | 51.25966 | 1.12995 | 9035 ft | 282 kts | 242° |
| 2026-05-06 20:58 | 51.25003 | 1.10280 | 8631 ft | 280 kts | 242° |
| 2026-05-06 20:58 | 51.24057 | 1.07618 | 8231 ft | 279 kts | 242° |
| 2026-05-06 20:58 | 51.23102 | 1.04937 | 8003 ft | 277 kts | 242° |
| 2026-05-06 20:59 | 51.22147 | 1.02252 | 8015 ft | 279 kts | 242° |
| 2026-05-06 20:59 | 51.21188 | 0.99566 | 8017 ft | 279 kts | 242° |
| 2026-05-06 20:59 | 51.20225 | 0.96873 | 8019 ft | 279 kts | 242° |
| 2026-05-06 20:59 | 51.19261 | 0.94183 | 8021 ft | 279 kts | 241° |
| 2026-05-06 21:00 | 51.18300 | 0.91508 | 8022 ft | 278 kts | 241° |
| 2026-05-06 21:00 | 51.17340 | 0.88833 | 8021 ft | 278 kts | 241° |
| 2026-05-06 21:00 | 51.16382 | 0.86164 | 8021 ft | 278 kts | 241° |
| 2026-05-06 21:00 | 51.15422 | 0.83495 | 8010 ft | 278 kts | 241° |
| 2026-05-06 21:01 | 51.14461 | 0.80827 | 8011 ft | 278 kts | 241° |
| 2026-05-06 21:01 | 51.13498 | 0.78155 | 8022 ft | 278 kts | 241° |
| 2026-05-06 21:01 | 51.12536 | 0.75489 | 8019 ft | 278 kts | 241° |
| 2026-05-06 21:01 | 51.11575 | 0.72826 | 8015 ft | 278 kts | 241° |
| 2026-05-06 21:02 | 51.10611 | 0.70160 | 8016 ft | 277 kts | 241° |
| 2026-05-06 21:02 | 51.09644 | 0.67500 | 8018 ft | 278 kts | 240° |
| 2026-05-06 21:02 | 51.08690 | 0.64878 | 8011 ft | 278 kts | 241° |
| 2026-05-06 21:02 | 51.07725 | 0.62220 | 8013 ft | 278 kts | 240° |
| 2026-05-06 21:03 | 51.06760 | 0.59559 | 8015 ft | 277 kts | 241° |
| 2026-05-06 21:03 | 51.05795 | 0.56899 | 8013 ft | 277 kts | 241° |
| 2026-05-06 21:03 | 51.04832 | 0.54245 | 8016 ft | 277 kts | 241° |
| 2026-05-06 21:03 | 51.03867 | 0.51588 | 8012 ft | 278 kts | 241° |
| 2026-05-06 21:04 | 51.02900 | 0.48931 | 8013 ft | 278 kts | 240° |
| 2026-05-06 21:04 | 51.01933 | 0.46279 | 8026 ft | 277 kts | 240° |
| 2026-05-06 21:04 | 51.00968 | 0.43638 | 7895 ft | 275 kts | 240° |
| 2026-05-06 21:04 | 51.00010 | 0.41026 | 7481 ft | 273 kts | 240° |
| 2026-05-06 21:05 | 50.99053 | 0.38423 | 7100 ft | 271 kts | 240° |
| 2026-05-06 21:05 | 50.98104 | 0.35846 | 7005 ft | 270 kts | 240° |
| 2026-05-06 21:05 | 50.97169 | 0.33301 | 7015 ft | 265 kts | 240° |
| 2026-05-06 21:05 | 50.96258 | 0.30826 | 7015 ft | 248 kts | 240° |
| 2026-05-06 21:06 | 50.95574 | 0.28428 | 7019 ft | 240 kts | 257° |
| 2026-05-06 21:06 | 50.95475 | 0.25823 | 6998 ft | 237 kts | 278° |
| 2026-05-06 21:06 | 50.95981 | 0.23366 | 6675 ft | 235 kts | 300° |
| 2026-05-06 21:06 | 50.96955 | 0.21304 | 6489 ft | 233 kts | 308° |
| 2026-05-06 21:07 | 50.97969 | 0.19271 | 6363 ft | 236 kts | 308° |
| 2026-05-06 21:07 | 50.98977 | 0.17218 | 6233 ft | 236 kts | 308° |
| 2026-05-06 21:07 | 50.99986 | 0.15159 | 6105 ft | 236 kts | 308° |
| 2026-05-06 21:07 | 51.00976 | 0.13095 | 5903 ft | 234 kts | 302° |
| 2026-05-06 21:08 | 51.01644 | 0.10773 | 5593 ft | 231 kts | 285° |
| 2026-05-06 21:08 | 51.01868 | 0.08255 | 5246 ft | 230 kts | 274° |
| 2026-05-06 21:08 | 51.01973 | 0.05722 | 4905 ft | 230 kts | 274° |
| 2026-05-06 21:08 | 51.02083 | 0.03198 | 4575 ft | 228 kts | 275° |
| 2026-05-06 21:09 | 51.02192 | 0.00686 | 4226 ft | 228 kts | 275° |
| 2026-05-06 21:09 | 51.02300 | -0.01825 | 3869 ft | 228 kts | 275° |
| 2026-05-06 21:09 | 51.02409 | -0.04340 | 3527 ft | 228 kts | 275° |
| 2026-05-06 21:09 | 51.02517 | -0.06847 | 3175 ft | 228 kts | 275° |
| 2026-05-06 21:10 | 51.02624 | -0.09351 | 3004 ft | 227 kts | 275° |
| 2026-05-06 21:10 | 51.02731 | -0.11860 | 3007 ft | 228 kts | 275° |
| 2026-05-06 21:10 | 51.02839 | -0.14384 | 3008 ft | 229 kts | 275° |
| 2026-05-06 21:10 | 51.02941 | -0.16869 | 3008 ft | 229 kts | 275° |
| 2026-05-06 21:11 | 51.03044 | -0.19389 | 3008 ft | 228 kts | 275° |
| 2026-05-06 21:11 | 51.03147 | -0.21892 | 3008 ft | 228 kts | 275° |
| 2026-05-06 21:11 | 51.03251 | -0.24418 | 3007 ft | 228 kts | 275° |
| 2026-05-06 21:11 | 51.03354 | -0.26937 | 3009 ft | 228 kts | 275° |
| 2026-05-06 21:12 | 51.03456 | -0.29458 | 3009 ft | 228 kts | 275° |
| 2026-05-06 21:12 | 51.03555 | -0.31973 | 3008 ft | 228 kts | 275° |
| 2026-05-06 21:12 | 51.03653 | -0.34492 | 3007 ft | 228 kts | 275° |
| 2026-05-06 21:12 | 51.03756 | -0.37014 | 3008 ft | 229 kts | 275° |
| 2026-05-06 21:13 | 51.03859 | -0.39534 | 3006 ft | 229 kts | 275° |
| 2026-05-06 21:13 | 51.03961 | -0.42061 | 3006 ft | 229 kts | 275° |
| 2026-05-06 21:13 | 51.04295 | -0.44498 | 3001 ft | 226 kts | 298° |
| 2026-05-06 21:13 | 51.05286 | -0.46375 | 3005 ft | 222 kts | 326° |
| 2026-05-06 21:14 | 51.06174 | -0.47077 | 3001 ft | 211 kts | 345° |
| 2026-05-06 21:14 | 51.07998 | -0.47086 | 3002 ft | 191 kts | 17° |
| 2026-05-06 21:14 | 51.09213 | -0.46460 | 3022 ft | 175 kts | 18° |
| 2026-05-06 21:14 | 51.10266 | -0.45705 | 3002 ft | 159 kts | 34° |
| 2026-05-06 21:15 | 51.10998 | -0.44559 | 3018 ft | 137 kts | 53° |
| 2026-05-06 21:15 | 51.11417 | -0.43263 | 2990 ft | 129 kts | 69° |
| 2026-05-06 21:15 | 51.11565 | -0.42341 | 2935 ft | 130 kts | 75° |
| 2026-05-06 21:15 | 51.11769 | -0.40901 | 2810 ft | 134 kts | 75° |
| 2026-05-06 21:16 | 51.11970 | -0.39455 | 2652 ft | 136 kts | 75° |
| 2026-05-06 21:16 | 51.12177 | -0.38005 | 2475 ft | 134 kts | 74° |
| 2026-05-06 21:16 | 51.12377 | -0.36554 | 2276 ft | 133 kts | 74° |
| 2026-05-06 21:16 | 51.12571 | -0.35148 | 2071 ft | 128 kts | 74° |
| 2026-05-06 21:17 | 51.12766 | -0.33778 | 1881 ft | 126 kts | 74° |
| 2026-05-06 21:17 | 51.12954 | -0.32416 | 1713 ft | 127 kts | 74° |
| 2026-05-06 21:17 | 51.13147 | -0.31052 | 1563 ft | 126 kts | 73° |
| 2026-05-06 21:17 | 51.13337 | -0.29673 | 1406 ft | 128 kts | 75° |
| 2026-05-06 21:18 | 51.13531 | -0.28276 | 1248 ft | 130 kts | 75° |
| 2026-05-06 21:18 | 51.13726 | -0.26864 | 1042 ft | 130 kts | 76° |
| 2026-05-06 21:18 | 51.13918 | -0.25470 | 860 ft | 128 kts | 77° |
| 2026-05-06 21:18 | 51.14112 | -0.24096 | 673 ft | 127 kts | 78° |
| 2026-05-06 21:19 | 51.14303 | -0.22733 | 506 ft | 125 kts | 78° |
| 2026-05-06 21:19 | 51.14488 | -0.21384 | 329 ft | 125 kts | 78° |
| 2026-05-06 21:19 | 51.14672 | -0.20062 | 215 ft | 117 kts | 79° |
| 2026-05-06 21:19 | 51.14814 | -0.18989 | 215 ft | 79 kts | 78° |
| 2026-05-06 21:20 | 51.14900 | -0.18375 | 213 ft | 36 kts | 75° |
| 2026-05-06 21:20 | 51.14948 | -0.18086 | 208 ft | 25 kts | 75° |
| 2026-05-06 21:20 | 51.15026 | -0.17865 | 208 ft | 23 kts | 51° |
| 2026-05-06 21:20 | 51.15118 | -0.17758 | 207 ft | 3 kts | 357° |
| 2026-05-06 21:21 | 51.15171 | -0.17763 | 208 ft | 18 kts | 356° |
| 2026-05-06 21:21 | 51.15229 | -0.17778 | 214 ft | 0 kts | 350° |
| 2026-05-06 21:23 | 51.15262 | -0.17724 | 213 ft | 14 kts | 68° |
| 2026-05-06 21:23 | 51.15286 | -0.17555 | 206 ft | 17 kts | 78° |
| 2026-05-06 21:23 | 51.15329 | -0.17371 | 211 ft | 16 kts | 24° |
| 2026-05-06 21:24 | 51.15438 | -0.17398 | 207 ft | 16 kts | 348° |
| 2026-05-06 21:24 | 51.15550 | -0.17441 | 213 ft | 17 kts | 349° |
| 2026-05-06 21:24 | 51.15673 | -0.17480 | 210 ft | 19 kts | 345° |
| 2026-05-06 21:24 | 51.15771 | -0.17451 | 211 ft | 9 kts | 74° |
| 2026-05-06 21:25 | 51.15787 | -0.17333 | 205 ft | 15 kts | 77° |
| 2026-05-06 21:25 | 51.15813 | -0.17140 | 207 ft | 18 kts | 71° |
| 2026-05-06 21:25 | 51.15888 | -0.17060 | 214 ft | 10 kts | 25° |
| 2026-05-06 21:25 | 51.15925 | -0.16991 | 209 ft | 8 kts | 91° |
| 2026-05-06 21:26 | 51.15898 | -0.16929 | 207 ft | 7 kts | 144° |
| 2026-05-06 21:26 | 51.15880 | -0.16911 | 210 ft | 0 kts | 147° |